Latest Weather Observations for Maningrida Airport

IDD60801

Issued at 4:31 am CST Monday 20 April 2015 (issued every 30 minutes, with the page automatically refreshed every 10 minutes)

About weather observations | Map of weather stations | Latest weather observations for NT | Other Formats
Station Details ID: 014405 Name: MANINGRIDA AIRPORT Lat: -12.06 Lon: 134.23 Height: 28.1 m
Data from the previous 72 hours. | See also: Recent months at Maningrida Airport
Date/Time
CST
Temp
°C
App
Temp
°C
Dew
Point
Rel
Hum
%
Delta-T
°C
Wind Press
QNH
hPa
Press
MSL
hPa
Rain
since 9 am
mm
Dir
 
Spd
km/h
Gust
km/h
Spd
kts
Gust
kts
20/04:30am 25.4 28.9 23.6 90 1.2 SE 11 13 6 7 1010.2 1010.1 6.4
20/04:00am 25.5 29.0 23.6 89 1.3 SE 11 13 6 7 1010.2 1010.1 6.4
20/03:30am 25.9 29.4 23.6 87 1.6 SE 11 15 6 8 1010.3 1010.2 6.4
20/03:00am 25.9 30.2 23.6 87 1.6 ESE 7 11 4 6 1010.4 1010.3 6.4
20/02:30am 26.1 30.3 23.4 85 1.8 ESE 7 9 4 5 1010.8 1010.7 6.4
20/02:00am 26.4 29.8 23.3 83 2.1 SE 11 13 6 7 1011.1 1011.0 6.4
20/01:30am 26.6 29.8 23.1 81 2.4 SE 11 15 6 8 1011.4 1011.2 6.4
20/01:00am 26.6 30.3 23.3 82 2.3 SSE 9 13 5 7 1011.7 1011.5 6.4
20/12:30am 26.6 30.0 23.3 82 2.3 SE 11 15 6 8 1011.8 1011.6 6.4
20/12:00am 27.0 30.0 23.3 80 2.5 SE 13 19 7 10 1012.2 1012.0 6.4
 
Date/Time
CST
Temp
°C
App
Temp
°C
Dew
Point
Rel
Hum
%
Delta-T
°C
Wind Press
QNH
hPa
Press
MSL
hPa
Rain
since 9 am
mm
Dir
 
Spd
km/h
Gust
km/h
Spd
kts
Gust
kts
19/11:30pm 27.2 29.4 23.2 79 2.7 SE 17 22 9 12 1012.4 1012.2 6.4
19/11:00pm 27.3 29.9 23.3 79 2.7 ESE 15 20 8 11 1012.3 1012.1 6.4
19/10:30pm 27.5 30.6 23.5 79 2.7 ESE 13 20 7 11 1012.2 1012.0 6.4
19/10:00pm 27.6 30.6 23.4 78 2.9 ESE 13 17 7 9 1011.8 1011.6 6.4
19/09:30pm 26.7 30.3 24.4 87 1.6 SE 13 17 7 9 1011.6 1011.4 6.4
19/09:00pm 26.0 30.6 24.8 93 0.8 SE 9 13 5 7 1011.1 1011.0 6.4
19/08:30pm 25.8 30.7 24.6 93 0.8 SE 7 9 4 5 1010.7 1010.6 6.4
19/08:00pm 25.9 30.7 24.5 92 1.0 SE 7 9 4 5 1010.1 1010.0 6.4
19/07:30pm 26.0 31.5 24.6 92 1.0 N 4 7 2 4 1009.9 1009.8 6.4
19/07:00pm 26.3 32.0 23.8 86 1.7 CALM 0 0 0 0 1009.6 1009.5 6.4
19/06:30pm 26.7 31.9 24.2 86 1.7 NW 4 9 2 5 1009.2 1009.0 6.4
19/06:00pm 26.9 30.4 22.9 79 2.7 E 9 13 5 7 1008.8 1008.6 6.4
19/05:30pm 26.5 30.0 24.2 87 1.6 SSE 13 15 7 8 1008.6 1008.4 6.4
19/05:00pm 25.4 27.6 24.0 92 1.0 SE 19 26 10 14 1008.7 1008.5 6.4
19/04:59pm 25.3 27.5 23.9 92 1.0 SE 19 26 10 14 1008.7 1008.5 6.4
19/04:31pm 25.2 23.8 23.6 91 1.1 ESE 37 59 20 32 1009.7 1009.6 2.6
19/04:30pm 25.2 24.1 23.4 90 1.2 ESE 35 59 19 32 1009.8 1009.7 2.4
19/04:29pm 25.5 24.5 23.6 89 1.3 ESE 35 59 19 32 1009.8 1009.7 2.0
19/04:24pm 27.0 26.9 23.5 81 2.4 ESE 30 59 16 32 1009.8 1009.7 1.6
19/04:15pm 27.4 28.2 23.2 78 2.9 E 24 37 13 20 1009.3 1009.1 1.4
19/04:06pm 29.8 29.8 23.0 67 4.7 NE 28 54 15 29 1009.0 1008.8 0.0
19/04:00pm 31.4 33.6 24.3 66 5.0 ENE 20 35 11 19 1009.0 1008.8 0.0
19/03:30pm 34.0 35.0 21.8 49 8.3 E 19 30 10 16 1008.6 1008.4 0.0
19/03:00pm 33.5 34.2 21.6 49 8.1 ESE 20 28 11 15 1008.6 1008.4 0.0
19/02:30pm 33.8 34.5 21.6 49 8.3 ESE 20 35 11 19 1008.8 1008.6 0.0
19/02:00pm 33.0 33.1 21.8 51 7.6 ESE 24 32 13 17 1009.3 1009.1 0.0
19/01:30pm 33.7 35.1 22.8 53 7.5 ESE 20 30 11 16 1009.5 1009.4 0.0
19/01:00pm 33.2 33.2 21.7 51 7.8 ESE 24 35 13 19 1009.9 1009.8 0.0
19/12:30pm 32.7 31.5 20.9 49 7.9 ESE 28 39 15 21 1010.3 1010.2 0.0
19/12:00pm 32.8 32.8 21.6 51 7.6 ESE 24 32 13 17 1010.7 1010.6 0.0
19/11:30am 32.6 33.2 22.1 54 7.2 ESE 22 30 12 16 1011.1 1011.0 0.0
19/11:00am 32.4 34.6 21.9 54 7.1 E 13 20 7 11 1011.6 1011.4 0.0
19/10:30am 31.6 32.9 21.7 55 6.7 ESE 17 24 9 13 1011.6 1011.4 0.0
19/10:00am 31.0 34.1 22.9 62 5.6 ESE 11 17 6 9 1011.9 1011.7 0.0
19/09:30am 29.7 32.3 22.7 66 4.8 SE 13 19 7 10 1012.0 1011.8 0.0
19/09:00am 28.3 31.9 23.7 76 3.2 SSE 11 15 6 8 1012.0 1011.8 0.0
19/08:30am 27.5 30.9 23.3 78 2.9 SE 11 15 6 8 1012.3 1012.1 0.0
19/08:00am 26.1 29.7 23.0 83 2.1 SSE 9 13 5 7 1012.1 1011.9 0.0
19/07:30am 24.8 28.7 22.9 89 1.3 SSE 7 11 4 6 1011.8 1011.6 0.0
19/07:00am 23.8 28.1 22.6 93 0.8 S 4 7 2 4 1011.7 1011.5 0.0
19/06:30am 23.6 26.8 22.4 93 0.8 S 9 13 5 7 1011.3 1011.1 0.0
19/06:00am 23.4 27.1 22.6 95 0.5 SSE 7 11 4 6 1010.8 1010.7 0.0
19/05:30am 23.2 26.9 22.2 94 0.7 SSE 6 7 3 4 1010.9 1010.8 0.0
19/05:00am 23.7 27.6 22.5 93 0.8 SE 6 7 3 4 1010.7 1010.6 0.0
19/04:30am 24.2 27.9 22.6 91 1.1 SE 7 9 4 5 1010.7 1010.6 0.0
19/04:00am 24.5 27.9 22.7 90 1.2 SE 9 9 5 5 1010.8 1010.7 0.0
19/03:30am 24.8 28.2 22.7 88 1.4 SE 9 11 5 6 1010.7 1010.6 0.0
19/03:00am 25.3 28.6 22.6 85 1.8 SE 9 13 5 7 1010.9 1010.8 0.0
19/02:30am 25.3 28.5 22.4 84 1.9 SE 9 13 5 7 1011.0 1010.9 0.0
19/02:00am 25.9 28.5 22.6 82 2.2 SE 13 17 7 9 1011.3 1011.1 0.0
19/01:30am 26.1 28.6 22.4 80 2.5 SE 13 15 7 8 1011.6 1011.4 0.0
19/01:00am 26.6 29.0 22.2 77 3.0 SE 13 17 7 9 1011.8 1011.6 0.0
19/12:30am 26.9 28.9 22.3 76 3.1 SE 15 20 8 11 1011.9 1011.7 0.0
19/12:00am 27.4 29.4 22.3 73 3.4 SE 15 20 8 11 1012.1 1011.9 0.0
 
Date/Time
CST
Temp
°C
App
Temp
°C
Dew
Point
Rel
Hum
%
Delta-T
°C
Wind Press
QNH
hPa
Press
MSL
hPa
Rain
since 9 am
mm
Dir
 
Spd
km/h
Gust
km/h
Spd
kts
Gust
kts
18/11:30pm 27.3 30.0 22.9 77 3.0 SE 13 15 7 8 1012.3 1012.1 0.0
18/11:00pm 27.7 30.6 23.1 76 3.1 SE 13 17 7 9 1012.3 1012.1 0.0
18/10:30pm 27.9 30.9 23.3 76 3.2 SE 13 17 7 9 1012.3 1012.1 0.0
18/10:00pm 27.8 31.3 23.6 78 2.9 ESE 11 17 6 9 1012.2 1012.0 0.0
18/09:30pm 28.1 31.0 23.2 74 3.4 ESE 13 17 7 9 1012.0 1011.8 0.0
18/09:00pm 28.0 31.8 23.4 76 3.2 ESE 9 13 5 7 1011.6 1011.4 0.0
18/08:30pm 28.0 31.8 23.4 76 3.2 ESE 9 13 5 7 1011.3 1011.1 0.0
18/08:00pm 28.1 31.8 23.2 74 3.4 ESE 9 13 5 7 1010.7 1010.6 0.0
18/07:30pm 28.7 32.5 24.0 76 3.3 E 11 17 6 9 1010.4 1010.3 0.0
18/07:00pm 29.2 33.4 23.4 71 4.0 ENE 7 9 4 5 1010.0 1009.9 0.0
18/06:30pm 29.3 33.1 23.5 71 4.0 ENE 9 13 5 7 1009.7 1009.6 0.0
18/06:00pm 29.6 32.1 23.1 68 4.5 ENE 15 20 8 11 1009.5 1009.4 0.0
18/05:30pm 30.2 32.0 22.6 63 5.2 NE 17 22 9 12 1009.1 1008.9 0.0
18/05:00pm 30.9 33.0 22.5 61 5.7 ENE 15 24 8 13 1008.9 1008.7 0.0
18/04:30pm 31.7 34.0 22.1 56 6.5 NE 13 22 7 12 1008.7 1008.5 0.0
18/04:00pm 31.6 32.8 21.4 54 6.9 ENE 17 22 9 12 1008.6 1008.4 0.0
18/03:30pm 32.8 32.8 18.2 42 9.5 E 15 24 8 13 1008.6 1008.4 0.0
18/03:00pm 32.6 33.2 20.2 48 8.3 ESE 17 26 9 14 1008.9 1008.7 0.0
18/02:30pm 33.1 33.6 19.2 43 9.1 SE 15 22 8 12 1009.2 1009.0 0.0
18/02:00pm 32.5 33.7 21.4 52 7.5 ESE 17 28 9 15 1009.4 1009.3 0.0
18/01:30pm 32.2 33.7 22.0 55 6.9 ESE 17 24 9 13 1009.7 1009.6 0.0
18/01:00pm 31.8 32.9 21.3 53 7.1 ESE 17 28 9 15 1010.0 1009.9 0.0
18/12:30pm 31.7 32.8 21.2 53 7.1 ESE 17 24 9 13 1010.5 1010.4 0.0
18/12:00pm 31.5 33.3 21.9 56 6.5 ESE 15 22 8 12 1011.0 1010.9 0.0
18/11:30am 30.8 32.1 21.6 58 6.2 E 17 22 9 12 1011.6 1011.4 0.0
18/11:00am 30.6 32.3 21.7 59 6.0 ESE 15 22 8 12 1012.0 1011.8 0.0
18/10:30am 29.7 31.0 21.6 61 5.4 ESE 17 22 9 12 1012.4 1012.2 0.0
18/10:00am 29.4 31.1 22.4 66 4.8 E 17 28 9 15 1012.6 1012.4 0.0
18/09:30am 28.8 30.5 22.3 68 4.4 ESE 17 22 9 12 1012.8 1012.6 0.0
18/09:00am 28.1 30.6 23.2 74 3.4 ESE 15 22 8 12 1012.8 1012.6 22.0
18/08:30am 27.7 31.0 23.9 80 2.6 SE 13 20 7 11 1012.8 1012.6 22.0
18/08:00am 26.4 29.7 23.9 86 1.7 SE 13 17 7 9 1012.6 1012.4 22.0
18/07:30am 25.1 28.6 23.5 91 1.1 SE 11 15 6 8 1012.2 1012.0 22.0
18/07:00am 24.4 27.8 23.4 94 0.7 SSE 11 15 6 8 1011.8 1011.6 22.0
18/06:30am 24.2 28.0 23.5 96 0.5 SSE 9 13 5 7 1011.4 1011.2 22.0
18/06:00am 24.3 27.7 23.4 95 0.6 SSE 11 15 6 8 1011.3 1011.1 22.0
18/05:30am 24.4 28.2 23.5 95 0.6 SSE 9 13 5 7 1011.0 1010.9 22.0
18/05:00am 24.5 28.0 23.6 95 0.6 SSE 11 17 6 9 1010.7 1010.6 22.0
18/04:30am 24.5 28.6 24.0 97 0.3 SSE 9 15 5 8 1010.5 1010.4 22.0
18/04:00am 24.6 28.9 24.3 98 0.2 SE 9 13 5 7 1010.2 1010.1 22.0
18/03:30am 24.6 29.3 24.3 98 0.2 S 7 9 4 5 1010.3 1010.2 22.0
18/03:00am 24.7 29.6 24.4 98 0.2 S 6 9 3 5 1010.5 1010.4 22.0
18/02:30am 24.8 29.6 24.5 98 0.2 S 7 11 4 6 1010.7 1010.6 22.0
18/02:00am 24.8 29.8 24.5 98 0.2 S 6 7 3 4 1010.9 1010.8 22.0
18/01:30am 24.9 29.7 24.4 97 0.3 SSW 7 9 4 5 1011.0 1010.9 22.0
18/01:00am 25.1 30.0 24.4 96 0.5 SSE 6 7 3 4 1011.4 1011.2 22.0
18/12:30am 25.2 30.0 24.5 96 0.5 ESE 7 11 4 6 1011.5 1011.3 22.0
18/12:00am 25.1 31.4 24.8 98 0.2 CALM 0 0 0 0 1011.8 1011.6 22.0
 
Date/Time
CST
Temp
°C
App
Temp
°C
Dew
Point
Rel
Hum
%
Delta-T
°C
Wind Press
QNH
hPa
Press
MSL
hPa
Rain
since 9 am
mm
Dir
 
Spd
km/h
Gust
km/h
Spd
kts
Gust
kts
17/11:30pm 24.8 29.6 24.5 98 0.2 SE 7 9 4 5 1011.9 1011.7 22.0
17/11:00pm 24.7 28.7 24.4 98 0.2 SE 11 13 6 7 1011.9 1011.7 22.0
17/10:30pm 24.5 29.1 24.2 98 0.2 SSW 7 9 4 5 1011.8 1011.6 22.0
17/10:00pm 24.7 29.9 24.2 97 0.3 ESE 4 6 2 3 1011.9 1011.7 22.0
17/09:30pm 24.7 29.2 24.0 96 0.5 ENE 7 13 4 7 1011.9 1011.7 22.0
17/09:00pm 25.1 27.4 24.1 94 0.7 ENE 19 30 10 16 1012.1 1011.9 21.4
17/08:47pm 24.5 28.6 24.0 97 0.3 ESE 9 15 5 8 1012.1 1011.9 21.4
17/08:45pm 24.6 28.9 24.3 98 0.2 SE 9 11 5 6 1011.9 1011.7 21.4
17/08:30pm 24.3 26.8 23.8 97 0.3 SE 17 20 9 11 1011.6 1011.4 21.0
17/08:16pm 24.5 25.9 23.6 95 0.6 SE 22 33 12 18 1011.5 1011.3 13.8
17/08:05pm 25.2 27.5 24.5 96 0.5 SSE 20 33 11 18 1011.3 1011.1 4.8
17/08:00pm 25.4 27.8 24.2 93 0.8 SSE 19 30 10 16 1011.1 1011.0 2.4
17/07:58pm 25.4 27.8 24.2 93 0.8 SSE 19 30 10 16 1011.0 1010.9 2.4
17/07:39pm 26.6 30.0 24.1 86 1.7 NE 13 28 7 15 1010.7 1010.6 1.8
17/07:30pm 27.9 32.5 24.7 83 2.2 NE 9 17 5 9 1010.5 1010.4 0.0
17/07:00pm 28.6 33.1 23.9 75 3.2 NE 7 13 4 7 1010.0 1009.9 0.0
17/06:30pm 29.1 32.9 24.0 74 3.5 NE 11 17 6 9 1010.0 1009.9 0.0
17/06:00pm 29.5 33.2 23.2 69 4.3 NE 9 13 5 7 1009.8 1009.7 0.0
17/05:30pm 30.3 32.8 22.5 63 5.3 NE 13 17 7 9 1009.4 1009.3 0.0
17/05:00pm 30.7 32.9 22.6 62 5.5 NE 15 24 8 13 1009.2 1009.0 0.0
17/04:30pm 31.2 32.6 21.9 57 6.3 NNE 17 22 9 12 1009.0 1008.8 0.0
17/04:00pm 31.2 33.2 22.2 58 6.1 NE 15 26 8 14 1009.1 1008.9 0.0
17/03:30pm 31.8 33.0 22.2 56 6.5 NE 19 28 10 15 1009.1 1008.9 0.0
17/03:00pm 31.4 32.4 21.8 56 6.5 NE 19 30 10 16 1009.4 1009.3 0.0
17/02:30pm 31.3 32.0 21.5 56 6.6 NE 20 28 11 15 1009.7 1009.6 0.0
17/02:00pm 31.7 32.8 21.2 53 7.1 ENE 17 24 9 13 1010.0 1009.9 0.0
17/01:30pm 31.5 32.7 21.4 55 6.8 NE 17 22 9 12 1010.6 1010.5 0.0
17/01:00pm 31.4 32.5 22.4 59 6.1 NE 20 30 11 16 1011.0 1010.9 0.0
17/12:30pm 31.4 33.0 22.1 57 6.3 ENE 17 24 9 13 1011.4 1011.2 0.0
17/12:00pm 30.8 31.1 20.7 55 6.7 ENE 20 30 11 16 1011.9 1011.7 0.0
17/11:30am 30.0 32.0 22.2 63 5.3 ESE 15 22 8 12 1012.3 1012.1 0.0
17/11:00am 30.7 32.7 22.3 61 5.7 ESE 15 26 8 14 1012.6 1012.4 0.0
17/10:30am 29.8 31.6 22.5 65 5.0 ESE 17 28 9 15 1013.0 1012.8 0.0
17/10:00am 29.6 31.0 22.6 66 4.8 ESE 19 26 10 14 1013.3 1013.1 0.0
17/09:30am 29.0 31.4 23.0 70 4.1 E 15 20 8 11 1013.4 1013.2 0.0
17/09:00am 28.3 30.6 22.8 72 3.7 E 15 20 8 11 1013.3 1013.1 3.8
17/08:30am 27.7 30.3 23.3 77 3.0 ESE 15 20 8 11 1013.0 1012.8 3.8
17/08:00am 26.4 28.4 22.9 81 2.4 SE 17 20 9 11 1012.7 1012.5 3.8
17/07:30am 25.2 28.8 23.1 88 1.4 SSE 9 13 5 7 1012.5 1012.3 3.8
17/07:00am 24.0 27.6 23.0 94 0.7 SSE 9 11 5 6 1012.3 1012.1 3.8
17/06:30am 23.9 28.0 22.9 94 0.7 SSE 6 9 3 5 1012.0 1011.8 3.8
17/06:00am 24.0 27.6 23.0 94 0.7 SSE 9 13 5 7 1011.6 1011.4 3.8
17/05:30am 24.2 27.8 23.0 93 0.8 SSE 9 13 5 7 1011.3 1011.1 3.8
17/05:00am 24.1 27.7 23.1 94 0.7 SE 9 13 5 7 1010.8 1010.7 3.8

Other Formats:

Comma delimited format used in spreadsheet applications
http://www.bom.gov.au/fwo/IDD60801/IDD60801.95142.axf

JavaScript Object Notation format (JSON) in row-major order
http://www.bom.gov.au/fwo/IDD60801/IDD60801.95142.json